Time;durP1;ratioP1;P1;durP2;ratioP2;P2;SDS_P1;SDS_P2;PMS_P1;PMS_P2;Temp;Humidity;BMP_temperature;BMP_pressure;BME280_temperature;BME280_humidity;BME280_pressure;Samples;Min_cycle;Max_cycle;Signal;HPM_P1;HPM_P2
2023/04/14 00:00:24;;;;;;;7.28;5.50;;;;;;;10.47;100.00;98935.47;1778288;80;21171;-81
2023/04/14 00:03:31;;;;;;;11.45;5.72;;;;;;;10.47;100.00;98938.20;1777665;80;21190;-82
2023/04/14 00:06:37;;;;;;;9.30;5.85;;;;;;;10.34;100.00;98940.08;1776642;80;21202;-82
2023/04/14 00:09:48;;;;;;;12.13;5.60;;;;;;;10.36;100.00;98947.04;1776382;80;21233;-82
2023/04/14 00:12:55;;;;;;;12.03;5.85;;;;;;;10.44;100.00;98939.14;1778164;80;21150;-82
2023/04/14 00:16:01;;;;;;;11.28;6.62;;;;;;;10.41;100.00;98948.62;1776305;80;21186;-82
2023/04/14 00:19:09;;;;;;;12.00;6.37;;;;;;;10.39;100.00;98942.50;1777797;80;21199;-82
2023/04/14 00:22:14;;;;;;;13.35;6.75;;;;;;;10.46;100.00;98946.09;1777356;80;21225;-82
2023/04/14 00:25:20;;;;;;;8.63;5.47;;;;;;;10.47;100.00;98946.94;1776259;80;21210;-83
2023/04/14 00:28:25;;;;;;;8.83;6.40;;;;;;;10.42;100.00;98955.77;1777274;80;21194;-82
2023/04/14 00:31:33;;;;;;;10.65;6.35;;;;;;;10.39;100.00;98954.80;1775842;80;21190;-83
2023/04/14 00:34:38;;;;;;;10.35;6.83;;;;;;;10.30;100.00;98956.05;1777309;80;21755;-83
2023/04/14 00:37:45;;;;;;;9.55;7.10;;;;;;;10.39;100.00;98959.42;1775649;80;21213;-82
2023/04/14 00:40:53;;;;;;;9.28;6.85;;;;;;;10.24;100.00;98953.62;1776305;80;21186;-83
2023/04/14 00:44:02;;;;;;;11.97;7.53;;;;;;;10.33;100.00;98950.70;1777014;80;21241;-83
2023/04/14 00:47:08;;;;;;;18.60;9.28;;;;;;;10.27;100.00;98956.48;1776448;80;21221;-83
2023/04/14 00:50:16;;;;;;;11.68;9.70;;;;;;;10.21;100.00;98955.92;1777344;80;21178;-83
2023/04/14 00:53:22;;;;;;;19.17;11.70;;;;;;;10.21;100.00;98955.92;1777201;80;21221;-83
2023/04/14 00:56:30;;;;;;;20.17;12.40;;;;;;;10.32;100.00;98953.12;1776352;80;21150;-83
2023/04/14 00:59:36;;;;;;;19.15;12.68;;;;;;;10.27;100.00;98955.64;1777084;80;21186;-83
2023/04/14 01:02:42;;;;;;;22.90;13.43;;;;;;;10.26;100.00;98954.80;1777334;80;21182;-83
2023/04/14 01:05:50;;;;;;;26.12;14.38;;;;;;;10.26;100.00;98955.30;1776264;80;21784;-83
2023/04/14 01:08:58;;;;;;;21.27;14.50;;;;;;;10.19;100.00;98955.27;1777386;80;21202;-83
2023/04/14 01:12:36;;;;;;;21.60;14.45;;;;;;;10.27;100.00;98963.31;1775610;80;21198;-83
2023/04/14 01:15:55;;;;;;;22.40;14.65;;;;;;;10.27;100.00;98960.58;1776528;80;21186;-83
2023/04/14 01:19:17;;;;;;;26.68;15.78;;;;;;;10.22;100.00;98960.33;1775815;80;21226;-82
2023/04/14 01:22:24;;;;;;;24.12;14.98;;;;;;;10.21;100.00;98955.92;1767260;80;21194;-82
2023/04/14 01:25:56;;;;;;;28.07;16.75;;;;;;;10.26;100.00;98956.17;1776667;80;21214;-83
2023/04/14 01:29:42;;;;;;;29.35;18.25;;;;;;;10.27;100.00;98955.64;1777321;80;21186;-82
2023/04/14 01:32:51;;;;;;;24.55;16.57;;;;;;;10.19;100.00;98947.07;1777123;80;21179;-82
2023/04/14 01:36:02;;;;;;;25.88;16.07;;;;;;;10.18;100.00;98954.42;1776694;80;21158;-83
2023/04/14 01:39:10;;;;;;;26.20;16.60;;;;;;;10.20;100.00;98954.21;1775809;80;21199;-82
2023/04/14 01:42:20;;;;;;;27.93;16.87;;;;;;;10.26;100.00;98956.17;1776679;80;21217;-82
2023/04/14 01:45:34;;;;;;;24.92;18.12;;;;;;;10.05;100.00;98954.91;1777073;80;21765;-82
2023/04/14 01:48:40;;;;;;;30.95;17.90;;;;;;;10.07;100.00;98956.91;1778645;80;21229;-82
2023/04/14 01:51:48;;;;;;;25.40;17.62;;;;;;;10.06;100.00;98956.59;1778758;80;21198;-82
2023/04/14 01:54:57;;;;;;;25.48;17.92;;;;;;;10.08;100.00;98958.09;1778823;80;21186;-82
2023/04/14 01:58:04;;;;;;;26.07;17.55;;;;;;;10.10;100.00;98964.70;1779501;80;21571;-82
2023/04/14 02:01:11;;;;;;;23.50;16.97;;;;;;;10.16;100.00;98959.27;1780331;80;21178;-82
2023/04/14 02:04:20;;;;;;;29.57;18.82;;;;;;;10.22;100.00;98953.50;1780144;80;21202;-82
2023/04/14 02:07:26;;;;;;;30.52;18.87;;;;;;;10.10;100.00;98958.70;1778895;80;21789;-82
2023/04/14 02:10:31;;;;;;;28.65;18.55;;;;;;;10.04;100.00;98955.97;1778873;80;21229;-82
2023/04/14 02:13:38;;;;;;;23.02;17.37;;;;;;;10.02;100.00;98960.28;1778716;80;21190;-82
2023/04/14 02:16:48;;;;;;;24.45;16.50;;;;;;;10.04;100.00;98957.34;1779471;80;22444;-82
2023/04/14 02:19:54;;;;;;;29.20;19.02;;;;;;;9.98;100.00;98959.84;1780294;80;21772;-82
2023/04/14 02:23:00;;;;;;;28.10;19.55;;;;;;;10.02;100.00;98958.92;1757516;80;21776;-82
2023/04/14 02:26:11;;;;;;;31.52;20.48;;;;;;;9.96;100.00;98961.92;1758136;80;21229;-82
2023/04/14 02:29:21;;;;;;;30.17;21.12;;;;;;;9.93;100.00;98963.72;1780324;80;21193;-82
2023/04/14 02:32:35;;;;;;;26.85;17.80;;;;;;;9.98;100.00;98968.04;1779999;80;21225;-83
2023/04/14 02:35:48;;;;;;;29.70;19.32;;;;;;;10.03;100.00;98962.48;1780261;80;21182;-82
2023/04/14 02:39:03;;;;;;;29.02;19.65;;;;;;;10.10;100.00;98963.33;1774713;80;21197;-82
2023/04/14 02:42:13;;;;;;;26.95;18.90;;;;;;;10.09;100.00;98961.66;1778828;80;21170;-83
2023/04/14 02:45:26;;;;;;;30.17;19.63;;;;;;;10.00;100.00;98965.09;1780587;80;21186;-83
2023/04/14 02:48:33;;;;;;;32.90;20.48;;;;;;;10.03;100.00;98976.14;1778835;80;21397;-83
2023/04/14 02:51:43;;;;;;;33.05;21.97;;;;;;;10.09;100.00;98969.85;1780614;80;21740;-83
2023/04/14 02:54:49;;;;;;;33.08;20.95;;;;;;;10.09;100.00;98984.88;1778779;80;21197;-82
2023/04/14 02:57:55;;;;;;;28.90;19.17;;;;;;;10.16;100.00;98987.96;1779055;80;21186;-83
2023/04/14 03:01:01;;;;;;;26.85;18.48;;;;;;;10.21;100.00;98982.72;1780459;80;21170;-82
2023/04/14 03:04:07;;;;;;;25.82;17.70;;;;;;;10.24;100.00;98982.84;1779360;80;21202;-83
2023/04/14 03:07:14;;;;;;;28.73;18.52;;;;;;;10.21;100.00;98986.81;1779542;80;21769;-82
2023/04/14 03:10:19;;;;;;;26.75;18.32;;;;;;;10.18;100.00;98989.11;1780135;80;21234;-82
2023/04/14 03:13:27;;;;;;;28.17;17.52;;;;;;;10.17;100.00;98995.10;1780221;80;21209;-82
2023/04/14 03:16:34;;;;;;;23.67;16.60;;;;;;;10.26;100.00;98992.19;1780077;80;21200;-82
2023/04/14 03:19:41;;;;;;;24.82;16.97;;;;;;;10.26;100.00;98994.43;1779028;80;21764;-82
2023/04/14 03:22:47;;;;;;;23.65;16.27;;;;;;;10.24;100.00;98985.58;1780476;80;21193;-83
2023/04/14 03:25:54;;;;;;;25.50;15.75;;;;;;;10.31;100.00;98988.34;1780225;80;21174;-82
2023/04/14 03:29:01;;;;;;;27.45;18.12;;;;;;;10.31;100.00;98984.25;1780315;80;21198;-82
2023/04/14 03:32:09;;;;;;;25.57;18.27;;;;;;;10.28;100.00;98983.28;1780271;80;21197;-82
2023/04/14 03:35:15;;;;;;;29.02;18.57;;;;;;;10.31;100.00;98994.66;1778949;80;21222;-83
2023/04/14 03:38:25;;;;;;;27.37;19.15;;;;;;;10.31;100.00;99001.48;1779084;80;21748;-82
2023/04/14 03:41:37;;;;;;;23.02;16.27;;;;;;;10.35;100.00;99008.23;1780329;80;21179;-82
2023/04/14 03:44:46;;;;;;;25.50;17.32;;;;;;;10.31;100.00;99016.52;1780222;80;21745;-82
2023/04/14 03:47:56;;;;;;;22.90;17.80;;;;;;;10.32;100.00;99016.83;1779954;80;21210;-83
2023/04/14 03:51:02;;;;;;;25.35;18.23;;;;;;;10.46;100.00;99021.80;1774533;80;22393;-82
2023/04/14 03:54:08;;;;;;;26.00;17.30;;;;;;;10.50;100.00;99029.91;1777294;80;21194;-82
2023/04/14 03:57:16;;;;;;;26.55;17.42;;;;;;;10.48;100.00;99031.47;1776628;80;21194;-82
2023/04/14 04:00:18;;;;;;;24.12;17.48;;;;;;;10.45;100.00;99032.42;1776779;80;21198;-82
2023/04/14 04:03:25;;;;;;;25.10;17.48;;;;;;;10.54;100.00;99034.42;1776915;80;21253;-82
2023/04/14 04:06:31;;;;;;;23.77;18.23;;;;;;;10.54;100.00;99034.42;1775606;80;21198;-82
2023/04/14 04:09:37;;;;;;;28.95;17.15;;;;;;;10.39;100.00;99037.33;1775841;80;21229;-82
2023/04/14 04:12:43;;;;;;;21.25;17.05;;;;;;;10.39;100.00;99036.80;1775867;80;21218;-82
2023/04/14 04:15:43;;;;;;;23.92;17.12;;;;;;;10.36;100.00;99045.96;1775961;80;21166;-82
2023/04/14 04:18:48;;;;;;;26.35;17.12;;;;;;;10.44;100.00;99053.95;1776266;80;21225;-82
2023/04/14 04:21:58;;;;;;;26.40;18.98;;;;;;;10.54;100.00;99047.59;1777596;80;21737;-82
2023/04/14 04:25:05;;;;;;;29.15;18.40;;;;;;;10.46;100.00;99060.91;1777638;80;21186;-82
2023/04/14 04:28:12;;;;;;;22.37;16.50;;;;;;;10.55;100.00;99064.84;1776190;80;21756;-82
2023/04/14 04:31:18;;;;;;;26.27;18.10;;;;;;;10.68;100.00;99060.74;1776245;80;21202;-82
2023/04/14 04:34:25;;;;;;;23.47;17.25;;;;;;;10.69;100.00;99068.76;1777355;80;21222;-82
2023/04/14 04:37:33;;;;;;;24.98;17.32;;;;;;;10.65;100.00;99063.38;1777373;80;21292;-82
2023/04/14 04:40:37;;;;;;;28.00;17.40;;;;;;;10.54;100.00;99063.13;1777472;80;21217;-82
2023/04/14 04:43:32;;;;;;;22.25;16.80;;;;;;;10.61;100.00;99069.47;1777411;80;21190;-82
2023/04/14 04:46:44;;;;;;;33.13;18.42;;;;;;;10.60;100.00;99070.52;1777305;80;21183;-82
2023/04/14 04:49:38;;;;;;;25.03;17.03;;;;;;;10.61;100.00;99070.84;1775745;79;21196;-82
2023/04/14 04:52:43;;;;;;;23.90;17.73;;;;;;;10.62;100.00;99076.62;1777089;80;21352;-82
2023/04/14 04:55:49;;;;;;;27.42;16.95;;;;;;;10.65;100.00;99081.69;1775648;80;21198;-82
2023/04/14 04:58:55;;;;;;;24.40;17.30;;;;;;;10.70;100.00;99081.91;1776493;80;21162;-82
2023/04/14 05:02:03;;;;;;;21.40;15.50;;;;;;;10.73;100.00;99085.60;1776055;80;21174;-82
2023/04/14 05:05:09;;;;;;;24.67;14.47;;;;;;;10.81;100.00;99085.39;1777177;80;21206;-82
2023/04/14 05:08:14;;;;;;;23.42;14.33;;;;;;;10.83;100.00;99095.61;1777007;80;21217;-83
2023/04/14 05:11:20;;;;;;;21.25;14.98;;;;;;;10.82;100.00;99088.47;1776906;80;21339;-83
2023/04/14 05:14:26;;;;;;;20.95;14.90;;;;;;;10.85;100.00;99094.03;1777418;80;21238;-83
2023/04/14 05:17:25;;;;;;;22.65;14.35;;;;;;;10.81;100.00;99100.43;1777652;80;21199;-83
2023/04/14 05:20:19;;;;;;;19.10;12.70;;;;;;;10.81;100.00;99102.33;1728797;80;21232;-83
2023/04/14 05:23:06;;;;;;;20.00;12.78;;;;;;;10.77;100.00;99093.69;1779694;79;21541;-83
2023/04/14 05:25:59;;;;;;;23.95;14.07;;;;;;;10.78;100.00;99092.66;1778627;79;21203;-84
2023/04/14 05:28:47;;;;;;;18.98;12.98;;;;;;;10.78;100.00;99095.39;1759407;79;22308;-83
2023/04/14 05:31:40;;;;;;;18.52;11.73;;;;;;;10.78;100.00;99103.60;1780716;79;21170;-82
2023/04/14 05:34:48;;;;;;;15.72;11.55;;;;;;;10.81;100.00;99105.91;1775655;79;21180;-83
2023/04/14 05:37:54;;;;;;;22.10;11.80;;;;;;;10.79;100.00;99109.38;1776635;79;21295;-83
2023/04/14 05:41:01;;;;;;;15.72;11.95;;;;;;;10.78;100.00;99111.80;1775519;79;21180;-83
2023/04/14 05:44:08;;;;;;;16.32;10.70;;;;;;;10.84;100.00;99113.70;1779175;79;21164;-83
2023/04/14 05:47:14;;;;;;;19.98;11.90;;;;;;;10.93;100.00;99103.41;1747553;81;21216;-83
2023/04/14 05:50:21;;;;;;;17.12;11.08;;;;;;;10.93;100.00;99115.20;1738206;81;21235;-83
2023/04/14 05:53:28;;;;;;;17.40;10.95;;;;;;;10.96;100.00;99123.00;1733660;81;21165;-88
2023/04/14 05:56:34;;;;;;;15.50;10.38;;;;;;;11.03;100.00;99132.58;1728010;81;21213;-81
2023/04/14 05:59:40;;;;;;;12.95;9.93;;;;;;;11.02;100.00;99120.48;1729706;82;21180;-82
2023/04/14 06:02:47;;;;;;;16.82;10.23;;;;;;;11.03;100.00;99118.05;1723159;82;21239;-83
2023/04/14 06:05:53;;;;;;;18.75;10.53;;;;;;;11.07;100.00;99120.70;1742507;80;21846;-81
2023/04/14 06:09:00;;;;;;;17.42;10.95;;;;;;;11.12;100.00;99130.49;1692784;82;21497;-84
2023/04/14 06:12:05;;;;;;;15.40;10.58;;;;;;;11.14;100.00;99122.90;1740793;80;21167;-83
2023/04/14 06:15:12;;;;;;;15.50;10.23;;;;;;;11.16;100.00;99127.66;1742541;81;21180;-83
2023/04/14 06:18:19;;;;;;;15.63;9.73;;;;;;;11.16;100.00;99128.50;1716860;82;21225;-83
2023/04/14 06:21:26;;;;;;;14.30;9.75;;;;;;;11.08;100.00;99143.73;1743150;80;21220;-84
2023/04/14 06:24:33;;;;;;;15.08;10.28;;;;;;;11.08;100.00;99139.63;1711304;82;21247;-83
2023/04/14 06:27:41;;;;;;;16.35;10.00;;;;;;;11.08;100.00;99148.37;1719067;82;21260;-83
2023/04/14 06:30:47;;;;;;;12.40;8.90;;;;;;;11.17;100.00;99149.86;1739760;80;21238;-84
2023/04/14 06:33:52;;;;;;;18.82;9.63;;;;;;;11.05;100.00;99146.87;1743738;81;21211;-84
2023/04/14 06:37:00;;;;;;;11.80;8.65;;;;;;;10.95;100.00;99153.28;1727059;82;21347;-83
2023/04/14 06:40:06;;;;;;;13.28;9.33;;;;;;;10.89;100.00;99153.59;1737863;82;21228;-84
2023/04/14 06:43:16;;;;;;;16.57;11.03;;;;;;;10.81;100.00;99161.14;1744700;82;21232;-84
2023/04/14 06:46:23;;;;;;;15.93;10.72;;;;;;;10.76;100.00;99164.48;1735548;82;21204;-83
2023/04/14 06:49:30;;;;;;;17.00;12.43;;;;;;;10.79;100.00;99176.92;1739359;80;21299;-83
2023/04/14 06:52:30;;;;;;;;;;;;;;;10.91;100.00;99179.36;1744901;80;21236;-83
2023/04/14 06:55:36;;;;;;;16.15;8.08;;;;;;;11.13;100.00;99181.43;1744414;80;20235;-83
2023/04/14 06:58:43;;;;;;;9.78;6.42;;;;;;;11.15;100.00;99172.47;1702584;82;21180;-83
2023/04/14 07:01:49;;;;;;;10.50;7.12;;;;;;;11.13;100.00;99171.85;1743621;81;21168;-83
2023/04/14 07:04:54;;;;;;;9.55;6.08;;;;;;;11.10;100.00;99185.41;1746487;81;21200;-83
2023/04/14 07:08:01;;;;;;;10.55;7.03;;;;;;;11.20;100.00;99183.67;1705838;82;21431;-83
2023/04/14 07:11:11;;;;;;;10.10;6.67;;;;;;;11.34;100.00;99200.44;1708498;83;21221;-84
2023/04/14 07:14:16;;;;;;;;;;;;;;;11.28;100.00;99194.40;1750733;81;21157;-82
2023/04/14 07:17:22;;;;;;;9.48;6.40;;;;;;;11.18;100.00;99196.17;1707033;82;20230;-84
2023/04/14 07:20:28;;;;;;;10.05;6.12;;;;;;;11.16;100.00;99197.45;1736104;82;21407;-84
2023/04/14 07:23:36;;;;;;;13.50;7.22;;;;;;;11.14;100.00;99196.80;1738280;80;21160;-83
2023/04/14 07:26:43;;;;;;;11.68;6.90;;;;;;;11.07;100.00;99199.52;1740413;81;21742;-83
2023/04/14 07:29:49;;;;;;;12.28;7.28;;;;;;;11.10;100.00;99194.98;1783386;80;21124;-83
2023/04/14 07:32:55;;;;;;;13.70;7.12;;;;;;;11.03;100.00;99199.62;1777360;79;21179;-84
2023/04/14 07:36:03;;;;;;;12.23;7.60;;;;;;;11.10;100.00;99204.56;1774958;79;21274;-84
2023/04/14 07:39:10;;;;;;;9.08;6.62;;;;;;;11.12;100.00;99197.54;1784016;79;21223;-84
2023/04/14 07:42:18;;;;;;;12.88;6.30;;;;;;;11.14;100.00;99203.64;1776671;79;21236;-83
2023/04/14 07:45:24;;;;;;;14.53;7.53;;;;;;;11.21;100.00;99203.98;1774019;79;21172;-84
2023/04/14 07:48:31;;;;;;;11.75;6.37;;;;;;;11.18;100.00;99200.80;1773596;79;21124;-83
2023/04/14 07:51:38;;;;;;;7.47;5.92;;;;;;;11.09;100.00;99201.52;1772232;80;22493;-83
2023/04/14 07:54:44;;;;;;;11.83;6.33;;;;;;;11.01;100.00;99203.09;1774435;79;21205;-84
2023/04/14 07:57:50;;;;;;;11.03;5.85;;;;;;;10.94;100.00;99210.42;1780039;79;21237;-84
2023/04/14 08:00:54;;;;;;;9.23;6.62;;;;;;;10.90;100.00;99218.19;1775393;79;21594;-84
2023/04/14 08:04:05;;;;;;;9.85;6.97;;;;;;;10.85;100.00;99231.64;1782582;79;21803;-83
2023/04/14 08:07:12;;;;;;;15.53;7.62;;;;;;;10.77;100.00;99227.70;1773849;79;22239;-84
2023/04/14 08:10:18;;;;;;;11.15;7.90;;;;;;;10.72;100.00;99238.42;1775508;79;21188;-85
2023/04/14 08:13:25;;;;;;;15.30;7.10;;;;;;;10.78;100.00;99233.52;1770568;79;21204;-84
2023/04/14 08:16:35;;;;;;;11.40;7.87;;;;;;;10.88;100.00;99237.24;1774837;79;21194;-84
2023/04/14 08:19:40;;;;;;;14.43;7.80;;;;;;;10.78;100.00;99240.36;1775192;79;21276;-84
2023/04/14 08:22:45;;;;;;;12.50;7.62;;;;;;;10.72;100.00;99240.63;1776036;79;21820;-84
2023/04/14 08:25:51;;;;;;;10.18;7.30;;;;;;;10.72;100.00;99246.63;1736670;81;21803;-84
2023/04/14 08:28:58;;;;;;;14.28;7.20;;;;;;;10.93;100.00;99234.73;1739255;81;21799;-84
2023/04/14 08:32:04;;;;;;;12.15;7.17;;;;;;;10.93;100.00;99249.25;1734807;81;21230;-84
2023/04/14 08:35:09;;;;;;;10.53;7.33;;;;;;;10.89;100.00;99243.87;1718680;82;21289;-84
2023/04/14 08:38:16;;;;;;;10.63;7.37;;;;;;;10.80;100.00;99249.19;1733613;81;21137;-84
2023/04/14 08:41:25;;;;;;;11.05;6.50;;;;;;;10.85;99.68;99247.22;1733345;81;21172;-84
2023/04/14 08:44:32;;;;;;;12.35;7.60;;;;;;;10.73;99.02;99246.97;1703641;82;21208;-84
2023/04/14 08:47:38;;;;;;;9.40;7.20;;;;;;;10.68;100.00;99252.17;1722750;82;21787;-84
2023/04/14 08:50:53;;;;;;;12.85;7.95;;;;;;;10.64;100.00;99244.08;1707059;82;21272;-84
2023/04/14 08:54:00;;;;;;;11.35;7.53;;;;;;;10.65;100.00;99252.59;1733876;81;21189;-84
2023/04/14 08:57:09;;;;;;;14.90;7.92;;;;;;;10.77;100.00;99253.69;1703667;83;21200;-84
2023/04/14 09:00:17;;;;;;;8.80;6.25;;;;;;;10.71;100.00;99253.14;1716742;83;21212;-84
2023/04/14 09:03:18;;;;;;;12.25;7.45;;;;;;;10.69;99.43;99254.73;1685039;83;21212;-84
2023/04/14 09:06:26;;;;;;;15.43;7.58;;;;;;;10.67;99.55;99256.80;1715692;81;21169;-84
2023/04/14 09:09:33;;;;;;;8.58;7.28;;;;;;;10.66;100.00;99267.95;1723336;82;21216;-84
2023/04/14 09:12:39;;;;;;;11.12;8.45;;;;;;;10.61;100.00;99267.72;1733349;81;21185;-84
2023/04/14 09:15:45;;;;;;;11.97;8.43;;;;;;;10.54;100.00;99258.62;1730009;81;21213;-84
2023/04/14 09:18:51;;;;;;;13.98;8.20;;;;;;;10.59;100.00;99270.66;1730172;81;21180;-84
2023/04/14 09:21:58;;;;;;;11.10;7.90;;;;;;;10.57;100.00;99271.90;1730909;81;21164;-84
2023/04/14 09:25:07;;;;;;;18.02;8.98;;;;;;;10.66;99.91;99276.16;1716098;83;21148;-84
2023/04/14 09:28:13;;;;;;;11.95;8.23;;;;;;;10.51;100.00;99280.91;1715451;83;21203;-84
2023/04/14 09:31:20;;;;;;;11.68;8.30;;;;;;;10.60;100.00;99281.92;1721468;82;21180;-84
2023/04/14 09:34:26;;;;;;;14.43;9.38;;;;;;;10.73;100.00;99277.89;1730176;81;21774;-84
2023/04/14 09:37:32;;;;;;;15.72;9.50;;;;;;;10.74;100.00;99278.73;1731471;82;21217;-84
2023/04/14 09:40:39;;;;;;;15.75;8.10;;;;;;;10.79;100.00;99276.23;1732948;82;21144;-84
2023/04/14 09:43:45;;;;;;;12.53;7.65;;;;;;;10.86;98.48;99281.20;1723823;82;21466;-84
2023/04/14 09:47:15;;;;;;;9.50;6.67;;;;;;;10.92;98.73;99284.51;1725304;82;21827;-84
2023/04/14 09:50:19;;;;;;;12.60;7.67;;;;;;;10.86;98.34;99296.24;1703449;82;21198;-84
2023/04/14 09:53:34;;;;;;;19.02;10.15;;;;;;;10.87;98.02;99295.22;1681195;83;21242;-84
2023/04/14 09:56:40;;;;;;;19.30;13.15;;;;;;;10.93;97.69;99307.23;1703883;82;21216;-84
2023/04/14 09:59:46;;;;;;;20.37;13.10;;;;;;;10.98;96.98;99312.41;1723782;80;21568;-84
2023/04/14 10:03:02;;;;;;;25.23;12.80;;;;;;;10.93;96.84;99319.02;1727517;82;21199;-84
2023/04/14 10:06:09;;;;;;;25.50;15.20;;;;;;;10.85;96.71;99320.55;1722457;81;21221;-84
2023/04/14 10:09:14;;;;;;;35.08;20.23;;;;;;;10.82;97.81;99324.20;1717398;83;21215;-84
2023/04/14 10:12:21;;;;;;;32.85;19.48;;;;;;;10.85;98.22;99321.92;1721783;83;21231;-84
2023/04/14 10:15:28;;;;;;;38.73;19.12;;;;;;;10.69;98.76;99325.83;1722528;82;21793;-84
2023/04/14 10:18:33;;;;;;;29.92;17.57;;;;;;;10.52;99.97;99327.19;1726370;82;22309;-84
2023/04/14 10:21:40;;;;;;;30.55;17.15;;;;;;;10.44;100.00;99331.43;1724451;81;21810;-84
2023/04/14 10:24:45;;;;;;;24.45;14.93;;;;;;;10.48;100.00;99329.47;1724185;81;21188;-84
2023/04/14 10:27:51;;;;;;;27.50;15.05;;;;;;;10.52;100.00;99331.28;1699431;83;21208;-84
2023/04/14 10:30:57;;;;;;;30.80;17.70;;;;;;;10.69;100.00;99340.03;1723745;83;21176;-84
2023/04/14 10:34:02;;;;;;;22.25;15.28;;;;;;;10.72;99.50;99339.09;1722902;82;21171;-84
2023/04/14 10:37:22;;;;;;;25.25;15.50;;;;;;;10.72;99.52;99347.81;1716195;81;21216;-84
2023/04/14 10:40:28;;;;;;;19.65;13.18;;;;;;;10.81;97.78;99354.82;1696669;84;21333;-83
2023/04/14 10:43:36;;;;;;;19.07;12.75;;;;;;;10.87;97.25;99362.73;1709783;82;21192;-84
2023/04/14 10:46:52;;;;;;;19.48;12.23;;;;;;;10.91;96.24;99367.61;1724825;83;21422;-84
2023/04/14 10:50:03;;;;;;;19.90;12.15;;;;;;;10.94;96.63;99366.38;1726443;81;21200;-84
2023/04/14 10:53:10;;;;;;;21.77;13.75;;;;;;;10.95;96.96;99373.53;1689208;81;22174;-84
2023/04/14 10:56:16;;;;;;;23.42;14.63;;;;;;;11.00;97.10;99378.72;1710639;82;21168;-84
2023/04/14 10:59:22;;;;;;;23.25;12.23;;;;;;;11.06;96.50;99381.72;1684345;84;21458;-84
2023/04/14 11:02:39;;;;;;;20.15;12.28;;;;;;;11.06;96.88;99389.92;1729810;83;21201;-84
2023/04/14 11:05:49;;;;;;;17.23;10.85;;;;;;;11.06;97.05;99388.03;1732997;81;22090;-83
2023/04/14 11:08:56;;;;;;;13.32;9.35;;;;;;;11.10;96.27;99393.92;1733632;81;21180;-84
2023/04/14 11:12:03;;;;;;;17.50;10.08;;;;;;;11.07;96.29;99394.34;1732996;82;21195;-84
2023/04/14 11:15:12;;;;;;;20.75;11.00;;;;;;;11.12;95.84;99396.80;1732660;82;21239;-84
2023/04/14 11:18:28;;;;;;;15.68;11.63;;;;;;;11.05;95.22;99402.73;1747437;82;21192;-84
2023/04/14 11:21:33;;;;;;;16.52;10.38;;;;;;;10.94;95.21;99400.58;1708816;83;21827;-83
2023/04/14 11:24:40;;;;;;;19.92;11.85;;;;;;;10.87;95.64;99397.81;1684065;85;21248;-83
2023/04/14 11:27:46;;;;;;;29.95;14.85;;;;;;;10.90;96.30;99402.86;1693703;83;21247;-84
2023/04/14 11:30:51;;;;;;;25.85;15.85;;;;;;;10.93;95.87;99409.31;1685253;85;21222;-84
2023/04/14 11:33:57;;;;;;;25.15;17.20;;;;;;;10.86;96.66;99413.87;1674209;83;22442;-84
2023/04/14 11:37:05;;;;;;;28.62;19.00;;;;;;;10.87;97.24;99402.41;1708327;82;22654;-84
2023/04/14 11:40:11;;;;;;;25.12;16.32;;;;;;;10.84;97.86;99411.88;1708048;83;21430;-84
2023/04/14 11:43:17;;;;;;;26.25;16.42;;;;;;;10.89;97.83;99414.02;1695190;83;21246;-84
2023/04/14 11:46:24;;;;;;;23.77;16.35;;;;;;;10.92;98.10;99418.57;1683773;85;21180;-83
2023/04/14 11:49:42;;;;;;;23.83;15.25;;;;;;;10.98;97.88;99419.13;1706412;81;21284;-84
2023/04/14 11:53:01;;;;;;;25.85;16.23;;;;;;;11.02;97.23;99426.95;1724408;83;21161;-84
2023/04/14 11:56:04;;;;;;;23.77;13.58;;;;;;;11.06;98.16;99420.88;1730053;83;21201;-83
2023/04/14 11:59:10;;;;;;;16.95;11.50;;;;;;;10.80;99.83;99426.99;1696796;82;21774;-84
2023/04/14 12:02:20;;;;;;;15.70;9.60;;;;;;;10.69;100.00;99427.03;1712182;82;21181;-84
2023/04/14 12:05:32;;;;;;;15.83;10.08;;;;;;;10.54;100.00;99423.55;1751038;81;21228;-84
2023/04/14 12:08:38;;;;;;;19.37;10.15;;;;;;;10.46;100.00;99426.41;1705422;81;21244;-84
2023/04/14 12:11:44;;;;;;;13.58;9.88;;;;;;;10.42;100.00;99427.32;1723076;81;21210;-84
2023/04/14 12:14:56;;;;;;;11.78;7.87;;;;;;;10.44;100.00;99427.11;1765519;81;21201;-84
2023/04/14 12:18:02;;;;;;;10.28;7.65;;;;;;;10.49;100.00;99424.14;1754409;81;21247;-83
2023/04/14 12:21:11;;;;;;;11.10;7.33;;;;;;;10.48;100.00;99425.68;1742668;81;21196;-83
2023/04/14 12:24:17;;;;;;;12.95;9.03;;;;;;;10.61;100.00;99424.95;1720330;81;21252;-84
2023/04/14 12:27:23;;;;;;;13.88;9.18;;;;;;;10.65;100.00;99417.52;1704578;84;21232;-83
2023/04/14 12:30:16;;;;;;;10.53;8.43;;;;;;;10.71;100.00;99413.14;1732058;83;21185;-83
2023/04/14 12:33:13;;;;;;;14.25;9.58;;;;;;;10.71;100.00;99417.25;1730271;83;21740;-83
2023/04/14 12:36:14;;;;;;;13.03;8.43;;;;;;;10.85;100.00;99420.41;1728879;83;21249;-83
2023/04/14 12:39:21;;;;;;;9.95;7.00;;;;;;;10.95;100.00;99426.36;1744991;81;21160;-83
2023/04/14 12:42:28;;;;;;;10.53;7.47;;;;;;;11.09;100.00;99431.92;1709487;82;21190;-83
2023/04/14 12:45:34;;;;;;;8.90;7.10;;;;;;;11.13;100.00;99431.84;1735117;81;21196;-83
2023/04/14 12:48:51;;;;;;;11.08;7.53;;;;;;;11.08;100.00;99436.55;1715066;82;21778;-83
2023/04/14 12:51:58;;;;;;;10.20;6.97;;;;;;;11.04;100.00;99434.42;1734640;82;21236;-83
2023/04/14 12:54:58;;;;;;;12.45;6.85;;;;;;;10.91;100.00;99442.00;1735314;82;21208;-84
2023/04/14 12:58:05;;;;;;;9.33;7.00;;;;;;;10.80;100.00;99437.09;1736237;82;21236;-83
2023/04/14 13:01:14;;;;;;;12.30;6.97;;;;;;;10.85;100.00;99440.08;1738268;82;21263;-84
2023/04/14 13:04:21;;;;;;;6.20;4.72;;;;;;;10.84;100.00;99443.34;1740038;82;21868;-83
2023/04/14 13:07:26;;;;;;;4.90;4.22;;;;;;;10.87;100.00;99444.31;1740488;82;21176;-83
2023/04/14 13:10:31;;;;;;;13.00;4.55;;;;;;;10.91;100.00;99443.38;1740744;82;21144;-83
2023/04/14 13:13:40;;;;;;;5.42;4.17;;;;;;;10.89;100.00;99454.52;1741037;82;21743;-84
2023/04/14 13:16:48;;;;;;;6.45;4.35;;;;;;;10.81;100.00;99462.88;1739911;82;21267;-83
2023/04/14 13:19:55;;;;;;;8.10;6.10;;;;;;;10.75;100.00;99460.94;1740751;82;21190;-83
2023/04/14 13:23:01;;;;;;;10.08;8.58;;;;;;;10.78;100.00;99461.08;1722368;83;21189;-83
2023/04/14 13:26:07;;;;;;;18.32;9.93;;;;;;;10.84;100.00;99467.12;1721350;83;21169;-83
2023/04/14 13:29:13;;;;;;;20.05;13.45;;;;;;;10.80;100.00;99468.03;1745718;82;21184;-83
2023/04/14 13:32:19;;;;;;;10.63;7.55;;;;;;;10.80;100.00;99469.92;1741676;82;21456;-83
2023/04/14 13:35:25;;;;;;;9.38;5.08;;;;;;;10.81;100.00;99469.71;1778847;80;21200;-83
2023/04/14 13:38:32;;;;;;;5.40;4.15;;;;;;;10.78;100.00;99481.59;1778689;79;21217;-83
2023/04/14 13:41:38;;;;;;;6.20;4.30;;;;;;;10.65;100.00;99485.05;1778394;80;21733;-83
2023/04/14 13:44:45;;;;;;;6.30;4.72;;;;;;;10.45;100.00;99480.25;1778406;80;21795;-83
2023/04/14 13:47:55;;;;;;;7.92;4.60;;;;;;;10.45;100.00;99487.09;1778613;80;21715;-83
2023/04/14 13:51:01;;;;;;;6.25;4.22;;;;;;;10.37;100.00;99488.58;1778668;80;21248;-83
2023/04/14 13:54:06;;;;;;;4.67;4.22;;;;;;;10.38;100.00;99486.69;1778502;80;21211;-83
2023/04/14 13:57:11;;;;;;;5.45;4.78;;;;;;;10.34;100.00;99496.31;1777418;80;21205;-83
2023/04/14 14:00:11;;;;;;;10.38;4.05;;;;;;;10.29;100.00;99494.16;1778523;80;21422;-83
2023/04/14 14:03:18;;;;;;;7.75;5.08;;;;;;;10.24;100.00;99498.00;1774804;80;21263;-83
2023/04/14 14:06:19;;;;;;;10.65;5.28;;;;;;;10.14;100.00;99501.53;1778569;81;21742;-83
2023/04/14 14:09:12;;;;;;;11.18;5.53;;;;;;;10.16;100.00;99507.16;1779163;79;21223;-83
2023/04/14 14:12:18;;;;;;;8.78;5.67;;;;;;;10.20;100.00;99510.32;1778184;81;21223;-82
2023/04/14 14:15:18;;;;;;;7.50;5.92;;;;;;;10.20;100.00;99514.42;1778563;81;21185;-82
2023/04/14 14:18:26;;;;;;;9.58;6.15;;;;;;;10.20;100.00;99519.88;1777744;80;21141;-83